Terminal Aerodrome Forecast
Issued by NWS Nashville, TN

Home | Current Version | Previous Version | Text Only | Print | Product List | Glossary On
Versions: 1 2 3 4 5 6 7 8 9 10 11 12 13 14 15 16 17 18 19 20 21 22 23 24
000
FTUS44 KOHX 270722 AAA
TAFBNA
TAF AMD
KBNA 270722Z 2707/2806 20007KT P6SM OVC070
     FM271600 22008KT P6SM VCSH BKN025 BKN060
     FM272100 23007KT 5SM -SHRA VCTS BKN025CB OVC050
     FM272300 21005KT P6SM VCSH SCT025 BKN070=

USA.gov is the U.S. government's official web portal to all federal, state and local government web resources and services.